createdAt,value
2022-10-14T00:01:20.764Z,37.50
2022-10-14T00:03:49.451Z,38.63
2022-10-14T00:06:26.131Z,38.83
2022-10-14T00:08:54.653Z,38.80
2022-10-14T00:11:28.442Z,36.45
2022-10-14T00:14:01.702Z,53.22
2022-10-14T00:16:35.035Z,33.17
2022-10-14T00:19:03.386Z,34.75
2022-10-14T00:21:31.795Z,42.53
2022-10-14T00:23:59.176Z,39.47
2022-10-14T00:26:33.329Z,37.95
2022-10-14T00:29:02.065Z,32.13
2022-10-14T00:31:32.449Z,40.75
2022-10-14T00:34:00.455Z,37.42
2022-10-14T00:36:28.011Z,39.85
2022-10-14T00:38:55.918Z,39.80
2022-10-14T00:41:29.002Z,40.30
2022-10-14T00:44:16.577Z,39.97
2022-10-14T00:46:49.931Z,40.78
2022-10-14T00:49:19.126Z,40.70
2022-10-14T00:52:22.609Z,44.20
2022-10-14T00:55:01.662Z,40.85
2022-10-14T00:57:30.538Z,49.55
2022-10-14T01:00:04.366Z,40.25
2022-10-14T01:02:31.805Z,39.58
2022-10-14T01:05:00.697Z,39.58
2022-10-14T01:07:33.698Z,47.28
2022-10-14T01:10:01.602Z,38.30
2022-10-14T01:12:59.017Z,41.70
2022-10-14T01:15:48.596Z,42.90
2022-10-14T01:18:26.850Z,40.33
2022-10-14T01:21:05.240Z,39.50
2022-10-14T01:23:56.544Z,40.22
2022-10-14T01:26:26.921Z,47.13
2022-10-14T01:29:13.798Z,44.40
2022-10-14T01:31:47.274Z,45.65
2022-10-14T01:34:23.632Z,45.88
2022-10-14T01:37:02.991Z,49.30
2022-10-14T01:39:37.851Z,47.90
2022-10-14T01:42:11.312Z,49.65
2022-10-14T01:44:43.547Z,60.70
2022-10-14T01:49:47.315Z,43.80
2022-10-14T01:52:22.808Z,43.47
2022-10-14T01:54:54.475Z,43.10
2022-10-14T01:57:28.647Z,51.22
2022-10-14T01:59:56.889Z,47.45
2022-10-14T02:02:25.238Z,54.13
2022-10-14T02:04:52.646Z,47.35
2022-10-14T02:07:49.869Z,53.25
2022-10-14T02:10:34.183Z,51.58
2022-10-14T02:13:17.638Z,47.50
2022-10-14T02:16:12.365Z,46.03
2022-10-14T02:18:45.979Z,47.20
2022-10-14T02:21:34.575Z,48.83
2022-10-14T02:24:06.838Z,45.88
2022-10-14T02:26:37.000Z,49.78
2022-10-14T02:29:05.893Z,47.58
2022-10-14T02:31:37.341Z,45.20
2022-10-14T02:34:09.063Z,51.05
2022-10-14T02:36:38.772Z,48.35
2022-10-14T02:39:09.807Z,45.78
2022-10-14T02:41:38.813Z,46.40
2022-10-14T02:44:08.513Z,57.40
2022-10-14T02:46:38.835Z,50.13
2022-10-14T02:49:09.331Z,49.58
2022-10-14T02:51:36.770Z,47.67
2022-10-14T02:54:04.180Z,45.92
2022-10-14T02:56:31.631Z,47.97
2022-10-14T02:59:04.305Z,52.42
2022-10-14T03:01:37.191Z,49.10
2022-10-14T03:04:05.836Z,50.00
2022-10-14T03:06:33.536Z,47.47
2022-10-14T03:09:01.418Z,54.50
2022-10-14T03:11:32.473Z,53.72
2022-10-14T03:14:04.915Z,47.83
2022-10-14T03:16:32.806Z,46.53
2022-10-14T03:19:00.210Z,49.55
2022-10-14T03:21:40.933Z,52.53
2022-10-14T03:24:14.614Z,47.72
2022-10-14T03:26:42.919Z,51.20
2022-10-14T03:29:10.329Z,50.92
2022-10-14T03:34:26.910Z,48.42
2022-10-14T03:37:04.182Z,46.45
2022-10-14T03:39:32.864Z,59.88
2022-10-14T03:42:05.694Z,45.80
2022-10-14T03:44:43.349Z,50.33
2022-10-14T03:47:18.185Z,52.92
2022-10-14T03:49:46.438Z,66.82
2022-10-14T03:52:21.717Z,52.55
2022-10-14T03:55:00.650Z,46.03
2022-10-14T03:57:28.633Z,54.80
2022-10-14T03:59:59.251Z,45.42
2022-10-14T04:02:42.062Z,44.08
2022-10-14T04:05:38.323Z,50.72
2022-10-14T04:08:11.745Z,50.83
2022-10-14T04:10:43.160Z,46.90
2022-10-14T04:13:14.909Z,53.63
2022-10-14T04:15:42.366Z,47.72
2022-10-14T04:18:23.882Z,50.70
2022-10-14T04:20:53.785Z,48.47
2022-10-14T04:23:23.579Z,48.85
2022-10-14T04:25:55.184Z,46.65
2022-10-14T04:28:24.947Z,60.30
2022-10-14T04:31:05.817Z,53.80
2022-10-14T04:33:45.090Z,55.70
2022-10-14T04:36:19.849Z,57.17
2022-10-14T04:38:47.267Z,55.88
2022-10-14T04:41:14.729Z,53.75
2022-10-14T04:43:47.696Z,56.92
2022-10-14T04:46:38.184Z,52.75
2022-10-14T04:49:05.798Z,56.08
2022-10-14T04:51:39.211Z,58.83
2022-10-14T04:54:31.563Z,52.53
2022-10-14T04:57:01.106Z,55.45
2022-10-14T04:59:29.361Z,51.20
2022-10-14T05:02:07.414Z,49.22
2022-10-14T05:04:47.314Z,52.08
2022-10-14T05:07:15.477Z,51.25
2022-10-14T05:09:48.638Z,56.10
2022-10-14T05:12:37.882Z,56.97
2022-10-14T05:15:06.615Z,55.83
2022-10-14T05:17:48.113Z,53.00
2022-10-14T05:20:19.313Z,55.30
2022-10-14T05:22:51.301Z,58.05
2022-10-14T05:25:19.206Z,59.47
2022-10-14T05:27:47.542Z,53.10
2022-10-14T05:30:15.229Z,64.25
2022-10-14T05:32:47.550Z,59.72
2022-10-14T05:35:33.984Z,64.35
2022-10-14T05:38:06.855Z,62.28
2022-10-14T05:40:38.407Z,63.35
2022-10-14T05:43:08.924Z,62.35
2022-10-14T05:45:40.122Z,58.58
2022-10-14T05:48:09.062Z,56.83
2022-10-14T05:50:37.324Z,61.40
2022-10-14T05:53:10.650Z,63.70
2022-10-14T05:55:42.470Z,56.50
2022-10-14T05:58:10.001Z,70.57
2022-10-14T06:00:40.974Z,65.25
2022-10-14T06:03:13.364Z,59.45
2022-10-14T06:05:41.557Z,56.75
2022-10-14T06:08:09.566Z,51.50
2022-10-14T06:10:39.073Z,53.38
2022-10-14T06:13:06.629Z,50.85
2022-10-14T06:15:36.958Z,54.92
2022-10-14T06:18:04.718Z,55.42
2022-10-14T06:20:33.440Z,56.05
2022-10-14T06:23:02.261Z,54.20
2022-10-14T06:25:30.711Z,54.05
2022-10-14T06:28:05.239Z,54.55
2022-10-14T06:30:33.564Z,51.35
2022-10-14T06:33:00.961Z,51.67
2022-10-14T06:35:28.548Z,46.25
2022-10-14T06:37:55.973Z,58.60
2022-10-14T06:40:23.439Z,54.85
2022-10-14T06:42:51.026Z,54.78
2022-10-14T06:45:18.441Z,68.07
2022-10-14T06:47:45.882Z,57.75
2022-10-14T06:50:13.479Z,57.72
2022-10-14T06:52:40.918Z,55.10
2022-10-14T06:55:08.392Z,51.00
2022-10-14T06:57:35.773Z,58.88
2022-10-14T07:00:05.014Z,60.30
2022-10-14T07:02:37.137Z,60.55
2022-10-14T07:05:06.603Z,63.38
2022-10-14T07:07:34.034Z,57.83
2022-10-14T07:10:01.558Z,55.45
2022-10-14T07:12:28.924Z,64.80
2022-10-14T07:14:57.075Z,53.38
2022-10-14T07:17:24.898Z,50.58
2022-10-14T07:19:52.557Z,87.00
2022-10-14T07:22:20.216Z,88.40
2022-10-14T07:24:47.802Z,80.32
2022-10-14T07:27:16.214Z,60.55
2022-10-14T07:29:43.678Z,55.88
2022-10-14T07:32:11.150Z,49.25
2022-10-14T07:34:38.554Z,53.97
2022-10-14T07:37:08.586Z,51.38
2022-10-14T07:39:35.949Z,54.65
2022-10-14T07:42:03.591Z,53.08
2022-10-14T07:44:30.982Z,54.53
2022-10-14T07:46:59.283Z,60.47
2022-10-14T07:49:26.670Z,63.22
2022-10-14T07:51:54.032Z,58.42
2022-10-14T07:54:24.458Z,61.20
2022-10-14T07:56:52.534Z,62.65
2022-10-14T07:59:20.907Z,56.78
2022-10-14T08:01:49.997Z,59.00
2022-10-14T08:04:17.773Z,63.25
2022-10-14T08:06:48.034Z,59.50
2022-10-14T08:09:16.820Z,56.05
2022-10-14T08:11:45.118Z,62.13
2022-10-14T08:14:13.166Z,62.53
2022-10-14T08:16:40.800Z,62.63
2022-10-14T08:19:14.425Z,60.58
2022-10-14T08:21:43.628Z,62.30
2022-10-14T08:24:11.652Z,59.83
2022-10-14T08:26:41.173Z,59.47
2022-10-14T08:29:11.642Z,62.33
2022-10-14T08:31:39.207Z,61.20
2022-10-14T08:34:06.883Z,59.50
2022-10-14T08:36:34.312Z,62.45
2022-10-14T08:39:01.832Z,60.22
2022-10-14T08:41:54.434Z,56.53
2022-10-14T08:44:43.597Z,58.65
2022-10-14T08:47:15.579Z,59.08
2022-10-14T08:50:01.691Z,59.05
2022-10-14T08:52:44.351Z,59.65
2022-10-14T08:55:39.355Z,52.80
2022-10-14T08:58:22.222Z,59.47
2022-10-14T09:00:52.580Z,53.95
2022-10-14T09:03:27.086Z,56.53
2022-10-14T09:05:59.803Z,52.80
2022-10-14T09:09:08.591Z,60.58
2022-10-14T09:11:41.414Z,58.35
2022-10-14T09:14:13.354Z,53.72
2022-10-14T09:16:41.475Z,61.30
2022-10-14T09:19:18.758Z,55.90
2022-10-14T09:21:53.537Z,54.20
2022-10-14T09:24:23.085Z,49.70
2022-10-14T09:26:58.849Z,53.95
2022-10-14T09:29:31.704Z,56.10
2022-10-14T09:32:12.623Z,53.67
2022-10-14T09:34:45.117Z,56.30
2022-10-14T09:37:30.207Z,59.00
2022-10-14T09:40:02.175Z,55.22
2022-10-14T09:42:55.582Z,59.75
2022-10-14T09:45:28.012Z,60.45
2022-10-14T09:48:07.914Z,58.35
2022-10-14T09:50:48.372Z,62.42
2022-10-14T09:53:32.563Z,55.35
2022-10-14T09:56:03.072Z,55.58
2022-10-14T09:58:44.352Z,59.25
2022-10-14T10:01:20.985Z,56.20
2022-10-14T10:03:50.486Z,57.05
2022-10-14T10:06:24.300Z,61.10
2022-10-14T10:08:57.371Z,55.58
2022-10-14T10:11:37.782Z,57.58
2022-10-14T10:14:26.294Z,62.28
2022-10-14T10:17:09.647Z,54.92
2022-10-14T10:19:40.342Z,61.40
2022-10-14T10:25:01.619Z,63.20
2022-10-14T10:27:30.415Z,67.00
2022-10-14T10:30:10.898Z,62.28
2022-10-14T10:32:48.951Z,59.25
2022-10-14T10:35:44.550Z,61.65
2022-10-14T10:38:23.877Z,60.70
2022-10-14T10:41:06.387Z,66.53
2022-10-14T10:43:42.897Z,65.30
2022-10-14T10:46:22.699Z,65.00
2022-10-14T10:48:55.417Z,66.20
2022-10-14T10:51:34.935Z,65.05
2022-10-14T10:54:02.564Z,66.28
2022-10-14T10:56:51.421Z,77.22
2022-10-14T10:59:30.320Z,67.40
2022-10-14T11:02:12.485Z,69.68
2022-10-14T11:04:49.046Z,70.03
2022-10-14T11:07:54.143Z,70.13
2022-10-14T11:10:54.268Z,70.90
2022-10-14T11:13:36.368Z,76.45
2022-10-14T11:16:26.564Z,79.82
2022-10-14T11:19:24.098Z,87.57
2022-10-14T11:21:51.488Z,77.32
2022-10-14T11:24:37.428Z,75.07
2022-10-14T11:27:27.429Z,84.65
2022-10-14T11:30:10.859Z,79.97
2022-10-14T11:33:05.927Z,77.22
2022-10-14T11:35:55.250Z,76.35
2022-10-14T11:38:28.439Z,81.70
2022-10-14T11:41:08.114Z,74.95
2022-10-14T11:43:49.738Z,76.45
2022-10-14T11:46:20.941Z,77.22
2022-10-14T11:48:51.262Z,72.50
2022-10-14T11:51:35.708Z,74.68
2022-10-14T11:54:20.272Z,72.70
2022-10-14T11:57:02.574Z,72.20
2022-10-14T11:59:50.967Z,72.95
2022-10-14T12:02:28.195Z,69.95
2022-10-14T12:05:04.585Z,72.93
2022-10-14T12:07:56.624Z,69.20
2022-10-14T12:10:33.101Z,69.90
2022-10-14T12:13:01.729Z,67.90
2022-10-14T12:18:00.906Z,77.95
2022-10-14T12:20:35.900Z,74.63
2022-10-14T12:23:07.861Z,71.63
2022-10-14T12:25:57.249Z,63.67
2022-10-14T12:28:25.109Z,62.35
2022-10-14T12:30:52.671Z,63.78
2022-10-14T12:33:23.051Z,71.00
2022-10-14T12:35:52.497Z,66.15
2022-10-14T12:38:21.558Z,65.57
2022-10-14T12:40:49.401Z,67.82
2022-10-14T12:43:26.229Z,62.45
2022-10-14T12:46:13.703Z,64.28
2022-10-14T12:48:52.324Z,60.90
2022-10-14T12:51:24.239Z,62.55
2022-10-14T12:54:15.778Z,59.72
2022-10-14T12:57:07.026Z,62.20
2022-10-14T12:59:39.656Z,63.67
2022-10-14T13:02:25.558Z,61.85
2022-10-14T13:04:55.152Z,69.70
2022-10-14T13:07:41.056Z,58.75
2022-10-14T13:10:45.997Z,62.72
2022-10-14T13:13:40.179Z,61.20
2022-10-14T13:16:33.148Z,61.03
2022-10-14T13:19:03.857Z,57.45
2022-10-14T13:21:52.903Z,55.50
2022-10-14T13:24:23.047Z,55.17
2022-10-14T13:26:53.580Z,52.20
2022-10-14T13:29:20.904Z,57.72
2022-10-14T13:31:51.336Z,67.03
2022-10-14T13:34:21.671Z,47.92
2022-10-14T13:36:58.611Z,49.33
2022-10-14T13:39:26.407Z,52.78
2022-10-14T13:41:58.032Z,54.38
2022-10-14T13:44:26.500Z,52.60
2022-10-14T13:46:54.990Z,60.47
2022-10-14T13:49:34.626Z,49.80
2022-10-14T13:52:08.197Z,55.63
2022-10-14T13:54:35.675Z,51.60
2022-10-14T13:57:38.713Z,55.78
2022-10-14T14:02:51.482Z,52.42
2022-10-14T14:05:26.733Z,50.28
2022-10-14T14:11:15.762Z,54.20
2022-10-14T14:14:01.362Z,58.30
2022-10-14T14:16:51.812Z,59.58
2022-10-14T14:19:24.916Z,63.63
2022-10-14T14:22:13.889Z,58.28
2022-10-14T14:24:41.329Z,55.70
2022-10-14T14:27:14.606Z,55.65
2022-10-14T14:29:44.442Z,50.92
2022-10-14T14:32:25.478Z,60.15
2022-10-14T14:37:52.916Z,64.80
2022-10-14T14:40:24.776Z,56.60
2022-10-14T14:43:03.899Z,52.72
2022-10-14T14:45:42.494Z,60.67
2022-10-14T14:48:13.873Z,61.22
2022-10-14T14:50:44.045Z,62.70
2022-10-14T14:53:17.178Z,68.97
2022-10-14T14:56:00.386Z,67.60
2022-10-14T14:58:44.854Z,65.88
2022-10-14T15:01:26.658Z,69.40
2022-10-14T15:04:15.273Z,73.32
2022-10-14T15:06:50.923Z,69.13
2022-10-14T15:09:48.474Z,61.50
2022-10-14T15:12:24.481Z,76.65
2022-10-14T15:14:54.428Z,83.18
2022-10-14T15:17:46.788Z,77.95
2022-10-14T15:20:26.570Z,82.68
2022-10-14T15:22:53.987Z,79.03
2022-10-14T15:25:28.868Z,78.07
2022-10-14T15:30:34.535Z,78.53
2022-10-14T15:33:15.159Z,90.30
2022-10-14T15:35:44.190Z,84.78
2022-10-14T15:38:18.883Z,87.95
2022-10-14T15:40:47.608Z,83.90
2022-10-14T15:43:23.498Z,79.63
2022-10-14T15:46:14.961Z,99.35
2022-10-14T15:48:54.901Z,83.07
2022-10-14T15:51:24.072Z,89.63
2022-10-14T15:53:51.946Z,84.70
2022-10-14T15:56:21.167Z,94.07
2022-10-14T15:58:49.193Z,82.13
2022-10-14T16:01:21.910Z,86.15
2022-10-14T16:03:52.304Z,86.13
2022-10-14T16:06:22.586Z,88.18
2022-10-14T16:08:50.158Z,90.45
2022-10-14T16:11:23.935Z,93.90
2022-10-14T16:13:51.339Z,86.97
2022-10-14T16:16:31.688Z,86.70
2022-10-14T16:19:02.361Z,89.60
2022-10-14T16:21:29.814Z,91.57
2022-10-14T16:23:58.865Z,95.20
2022-10-14T16:26:26.406Z,98.25
2022-10-14T16:28:54.004Z,98.28
2022-10-14T16:31:21.518Z,94.13
2022-10-14T16:36:24.880Z,100.53
2022-10-14T16:38:52.670Z,103.30
2022-10-14T16:41:20.344Z,93.55
2022-10-14T16:43:47.760Z,101.65
2022-10-14T16:46:18.111Z,104.18
2022-10-14T16:48:48.594Z,97.32
2022-10-14T16:51:16.092Z,87.35
2022-10-14T16:53:48.853Z,92.60
2022-10-14T16:56:37.738Z,102.55
2022-10-14T16:59:07.687Z,81.30
2022-10-14T17:01:35.274Z,98.70
2022-10-14T17:04:02.843Z,122.47
2022-10-14T17:06:30.324Z,103.75
2022-10-14T17:08:58.443Z,93.35
2022-10-14T17:11:29.292Z,91.90
2022-10-14T17:14:00.317Z,91.57
2022-10-14T17:16:28.730Z,80.82
2022-10-14T17:18:57.768Z,84.70
2022-10-14T17:21:29.324Z,86.03
2022-10-14T17:24:03.339Z,92.45
2022-10-14T17:26:32.684Z,91.72
2022-10-14T17:29:00.535Z,81.15
2022-10-14T17:31:28.951Z,84.45
2022-10-14T17:33:56.621Z,73.57
2022-10-14T17:36:30.961Z,75.75
2022-10-14T17:38:59.675Z,55.58
2022-10-14T17:41:29.058Z,63.08
2022-10-14T17:43:58.436Z,53.90
2022-10-14T17:46:27.104Z,54.75
2022-10-14T17:48:56.969Z,58.90
2022-10-14T17:51:25.929Z,52.65
2022-10-14T17:53:55.095Z,58.97
2022-10-14T17:56:22.760Z,50.45
2022-10-14T17:58:58.605Z,61.95
2022-10-14T18:01:37.531Z,51.72
2022-10-14T18:04:14.767Z,46.83
2022-10-14T18:06:44.831Z,61.90
2022-10-14T18:09:12.892Z,56.63
2022-10-14T18:14:33.522Z,55.17
2022-10-14T18:17:01.008Z,55.75
2022-10-14T18:19:28.472Z,58.60
2022-10-14T18:21:55.865Z,55.83
2022-10-14T18:24:23.597Z,60.97
2022-10-14T18:26:52.122Z,59.08
2022-10-14T18:29:19.592Z,63.35
2022-10-14T18:31:49.873Z,67.03
2022-10-14T18:34:17.716Z,63.20
2022-10-14T18:36:45.244Z,61.58
2022-10-14T18:39:12.673Z,61.92
2022-10-14T18:41:41.773Z,67.95
2022-10-14T18:44:09.261Z,59.03
2022-10-14T18:46:37.870Z,69.13
2022-10-14T18:49:08.033Z,71.82
2022-10-14T18:51:38.233Z,64.70
2022-10-14T18:54:10.896Z,60.10
2022-10-14T18:56:38.876Z,68.03
2022-10-14T18:59:09.400Z,60.33
2022-10-14T19:01:39.291Z,72.55
2022-10-14T19:04:08.995Z,59.22
2022-10-14T19:06:36.726Z,58.95
2022-10-14T19:09:04.634Z,72.68
2022-10-14T19:11:34.078Z,66.80
2022-10-14T19:14:03.868Z,66.43
2022-10-14T19:16:33.694Z,61.65
2022-10-14T19:19:07.941Z,61.03
2022-10-14T19:21:35.427Z,63.60
2022-10-14T19:24:03.328Z,66.60
2022-10-14T19:26:33.725Z,65.05
2022-10-14T19:29:04.296Z,72.60
2022-10-14T19:31:35.798Z,67.05
2022-10-14T19:34:06.457Z,61.45
2022-10-14T19:36:36.007Z,70.65
2022-10-14T19:39:05.058Z,70.72
2022-10-14T19:41:34.802Z,72.38
2022-10-14T19:44:02.257Z,70.90
2022-10-14T19:46:29.993Z,64.90
2022-10-14T19:48:59.826Z,64.97
2022-10-14T19:51:27.283Z,71.07
2022-10-14T19:53:55.810Z,68.20
2022-10-14T19:56:24.851Z,72.85
2022-10-14T19:58:54.224Z,76.93
2022-10-14T20:01:23.819Z,68.93
2022-10-14T20:03:52.017Z,71.70
2022-10-14T20:06:20.389Z,77.85
2022-10-14T20:08:47.959Z,76.60
2022-10-14T20:11:17.322Z,77.68
2022-10-14T20:13:45.239Z,74.00
2022-10-14T20:16:13.433Z,74.97
2022-10-14T20:18:41.282Z,74.80
2022-10-14T20:21:11.558Z,73.65
2022-10-14T20:23:39.577Z,74.10
2022-10-14T20:26:11.213Z,78.05
2022-10-14T20:28:39.880Z,78.45
2022-10-14T20:31:09.798Z,77.68
2022-10-14T20:33:37.574Z,87.20
2022-10-14T20:36:16.860Z,72.85
2022-10-14T20:38:44.586Z,88.20
2022-10-14T20:41:16.322Z,82.85
2022-10-14T20:43:44.675Z,78.45
2022-10-14T20:46:12.216Z,82.55
2022-10-14T20:48:39.662Z,78.95
2022-10-14T20:51:09.988Z,81.82
2022-10-14T20:53:37.616Z,81.47
2022-10-14T20:56:11.120Z,82.35
2022-10-14T20:58:39.455Z,76.43
2022-10-14T21:01:15.230Z,76.28
2022-10-14T21:03:44.873Z,75.93
2022-10-14T21:06:15.046Z,86.10
2022-10-14T21:08:42.609Z,78.93
2022-10-14T21:11:15.016Z,79.82
2022-10-14T21:13:45.945Z,80.38
2022-10-14T21:16:14.437Z,81.88
2022-10-14T21:18:45.834Z,90.82
2022-10-14T21:21:16.550Z,92.77
2022-10-14T21:23:45.218Z,77.82
2022-10-14T21:26:12.691Z,82.65
2022-10-14T21:28:40.123Z,85.57
2022-10-14T21:31:09.930Z,82.28
2022-10-14T21:33:37.734Z,88.03
2022-10-14T21:36:13.151Z,82.55
2022-10-14T21:38:40.968Z,84.85
2022-10-14T21:41:09.385Z,83.22
2022-10-14T21:43:38.245Z,80.60
2022-10-14T21:46:11.411Z,92.57
2022-10-14T21:48:39.971Z,85.50
2022-10-14T21:51:11.204Z,97.50
2022-10-14T21:53:39.983Z,91.28
2022-10-14T21:56:08.018Z,89.70
2022-10-14T21:58:36.330Z,90.50
2022-10-14T22:01:10.064Z,86.95
2022-10-14T22:03:38.768Z,85.70
2022-10-14T22:06:09.518Z,88.10
2022-10-14T22:08:40.261Z,85.60
2022-10-14T22:11:14.679Z,93.50
2022-10-14T22:13:42.403Z,93.18
2022-10-14T22:16:09.957Z,90.95
2022-10-14T22:18:37.432Z,88.57
2022-10-14T22:21:08.327Z,95.32
2022-10-14T22:23:36.598Z,90.05
2022-10-14T22:26:05.091Z,88.60
2022-10-14T22:28:32.622Z,87.75
2022-10-14T22:31:30.102Z,89.47
2022-10-14T22:33:58.966Z,93.25
2022-10-14T22:36:28.690Z,93.07
2022-10-14T22:38:57.533Z,91.00
2022-10-14T22:41:25.629Z,86.57
2022-10-14T22:43:55.409Z,94.05
2022-10-14T22:46:26.945Z,96.28
2022-10-14T22:48:56.330Z,89.97
2022-10-14T22:53:54.645Z,90.65
2022-10-14T22:56:24.532Z,90.20
2022-10-14T22:58:59.355Z,92.88
2022-10-14T23:01:28.018Z,91.68
2022-10-14T23:03:57.135Z,85.93
2022-10-14T23:06:25.051Z,97.05
2022-10-14T23:08:52.699Z,91.60
2022-10-14T23:11:22.556Z,96.72
2022-10-14T23:13:50.509Z,88.28
2022-10-14T23:16:23.447Z,89.90
2022-10-14T23:18:52.043Z,92.43
2022-10-14T23:21:30.471Z,87.03
2022-10-14T23:24:00.435Z,90.72
2022-10-14T23:26:33.230Z,97.10
2022-10-14T23:29:02.407Z,92.63
2022-10-14T23:31:32.992Z,87.68
2022-10-14T23:34:02.805Z,96.30
2022-10-14T23:36:31.092Z,89.30
2022-10-14T23:38:59.078Z,91.30
2022-10-14T23:41:26.775Z,86.57
2022-10-14T23:43:56.196Z,86.57
2022-10-14T23:46:23.730Z,84.80
2022-10-14T23:49:01.204Z,92.40
2022-10-14T23:51:35.777Z,88.13
2022-10-14T23:54:03.821Z,93.43
2022-10-14T23:56:31.222Z,95.55
2022-10-14T23:58:58.738Z,89.32
